Time;durP1;ratioP1;P1;durP2;ratioP2;P2;SDS_P1;SDS_P2;PMS_P1;PMS_P2;Temp;Humidity;BMP_temperature;BMP_pressure;BME280_temperature;BME280_humidity;BME280_pressure;Samples;Min_cycle;Max_cycle;Signal;HPM_P1;HPM_P2
2023/02/05 00:00:24;;;;;;;5.82;4.35;;;;;;;-1.33;100.00;94912.13;5051255;28;20203;-78
2023/02/05 00:02:51;;;;;;;5.88;3.88;;;;;;;-1.30;100.00;94918.91;5051207;28;20206;-79
2023/02/05 00:05:17;;;;;;;3.92;3.63;;;;;;;-1.26;100.00;94911.00;5051348;28;20210;-78
2023/02/05 00:07:44;;;;;;;4.40;3.85;;;;;;;-1.32;100.00;94924.09;5053996;28;20670;-79
2023/02/05 00:10:12;;;;;;;5.57;3.90;;;;;;;-1.39;100.00;94920.09;5054998;28;20260;-79
2023/02/05 00:12:39;;;;;;;3.63;3.00;;;;;;;-1.38;100.00;94924.34;5055218;28;20202;-79
2023/02/05 00:15:07;;;;;;;3.83;3.38;;;;;;;-1.44;100.00;94934.03;5019875;28;20253;-78
2023/02/05 00:17:35;;;;;;;5.65;4.10;;;;;;;-1.49;100.00;94920.47;5055008;28;20195;-79
2023/02/05 00:20:02;;;;;;;6.90;3.33;;;;;;;-1.53;100.00;94930.06;5055012;28;20294;-79
2023/02/05 00:22:29;;;;;;;4.05;3.40;;;;;;;-1.49;100.00;94928.19;5054925;28;20684;-79
2023/02/05 00:24:56;;;;;;;3.17;2.90;;;;;;;-1.46;100.00;94925.50;5054828;28;20203;-78
2023/02/05 00:27:24;;;;;;;4.97;3.78;;;;;;;-1.46;100.00;94928.91;5035913;28;20241;-78
2023/02/05 00:29:50;;;;;;;5.63;3.85;;;;;;;-1.45;100.00;94935.75;5054655;28;20222;-78
2023/02/05 00:32:17;;;;;;;6.88;4.78;;;;;;;-1.36;100.00;94942.28;5054919;28;20336;-78
2023/02/05 00:34:44;;;;;;;8.23;5.20;;;;;;;-1.44;100.00;94937.44;5054725;28;20253;-78
2023/02/05 00:37:11;;;;;;;3.95;3.55;;;;;;;-1.38;100.00;94938.94;5054629;28;20207;-79
2023/02/05 00:39:38;;;;;;;3.85;3.55;;;;;;;-1.43;100.00;94931.41;5054723;28;20225;-79
2023/02/05 00:42:04;;;;;;;6.72;4.38;;;;;;;-1.44;100.00;94940.03;5054466;28;20202;-79
2023/02/05 00:44:32;;;;;;;6.32;4.18;;;;;;;-1.50;99.77;94950.53;5055001;28;20590;-79
2023/02/05 00:46:59;;;;;;;4.28;3.35;;;;;;;-1.48;100.00;94946.16;5054366;28;20211;-79
2023/02/05 00:49:26;;;;;;;6.70;4.30;;;;;;;-1.58;98.21;94947.41;5054125;28;20575;-79
2023/02/05 00:51:53;;;;;;;5.05;4.28;;;;;;;-1.52;97.21;94952.31;5054523;28;20207;-79
2023/02/05 00:54:20;;;;;;;3.45;2.95;;;;;;;-1.50;95.76;94940.22;5054757;28;20900;-78
2023/02/05 00:56:46;;;;;;;4.80;4.40;;;;;;;-1.38;98.98;94959.53;5054282;28;20206;-78
2023/02/05 00:59:13;;;;;;;3.28;2.45;;;;;;;-1.48;97.81;94942.75;5054114;28;20203;-78
2023/02/05 01:01:41;;;;;;;3.00;2.75;;;;;;;-1.51;98.24;94951.41;5054154;28;20650;-77
2023/02/05 01:04:08;;;;;;;5.85;4.03;;;;;;;-1.55;97.37;94947.28;5002689;28;20207;-79
2023/02/05 01:06:35;;;;;;;2.85;2.65;;;;;;;-1.69;97.97;94949.53;5054266;28;20264;-78
2023/02/05 01:09:01;;;;;;;4.50;3.55;;;;;;;-1.72;99.16;94957.38;5054063;28;20222;-78
2023/02/05 01:11:28;;;;;;;4.93;4.13;;;;;;;-1.73;98.70;94953.97;5054076;28;20203;-78
2023/02/05 01:13:55;;;;;;;4.22;3.83;;;;;;;-1.64;100.00;94953.63;5054504;28;20206;-78
2023/02/05 01:16:22;;;;;;;4.68;4.18;;;;;;;-1.67;99.27;94958.03;5054335;28;20202;-79
2023/02/05 01:18:51;;;;;;;3.85;3.38;;;;;;;-1.73;98.78;94955.69;5053735;28;20253;-79
2023/02/05 01:21:18;;;;;;;4.35;3.80;;;;;;;-1.85;99.40;94962.09;5054160;28;20199;-78
2023/02/05 01:23:45;;;;;;;5.05;4.55;;;;;;;-1.86;100.00;94947.56;5054202;28;20650;-80
2023/02/05 01:26:12;;;;;;;3.67;3.35;;;;;;;-1.88;99.63;94960.47;5053631;28;20697;-78
2023/02/05 01:28:38;;;;;;;8.65;5.45;;;;;;;-1.78;100.00;94957.56;5053533;28;20238;-79
2023/02/05 01:31:08;;;;;;;6.15;5.55;;;;;;;-1.74;100.00;94964.28;5053674;28;20206;-79
2023/02/05 01:33:35;;;;;;;5.85;4.90;;;;;;;-1.76;100.00;94964.31;5053639;28;20218;-78
2023/02/05 01:36:03;;;;;;;9.45;4.57;;;;;;;-1.73;100.00;94964.25;5053599;28;20616;-79
2023/02/05 01:38:30;;;;;;;5.45;4.45;;;;;;;-1.78;100.00;94958.41;5053441;28;20272;-79
2023/02/05 01:40:58;;;;;;;5.28;4.72;;;;;;;-1.76;100.00;94973.78;5055668;28;20226;-79
2023/02/05 01:43:25;;;;;;;4.65;4.22;;;;;;;-1.80;100.00;94972.22;5053349;28;20210;-79
2023/02/05 01:46:16;;;;;;;6.57;4.18;;;;;;;-1.84;99.57;94968.91;5001728;28;20207;-78
2023/02/05 01:48:49;;;;;;;5.65;5.10;;;;;;;-1.85;98.60;94979.25;5053256;28;20795;-79
2023/02/05 01:51:17;;;;;;;4.93;4.15;;;;;;;-1.99;98.21;94972.88;5053212;28;20213;-79
2023/02/05 01:53:47;;;;;;;5.63;4.53;;;;;;;-1.87;98.61;94981.88;5017972;28;20206;-79
2023/02/05 01:56:19;;;;;;;3.83;3.53;;;;;;;-1.81;99.01;94985.97;5034281;28;20195;-78
2023/02/05 01:58:52;;;;;;;4.32;4.00;;;;;;;-1.99;98.82;94987.47;5053170;28;20209;-79
2023/02/05 02:01:19;;;;;;;4.05;3.65;;;;;;;-1.99;98.40;94978.03;5053445;28;20313;-78
2023/02/05 02:03:47;;;;;;;4.18;3.75;;;;;;;-1.94;99.59;94981.28;5053092;28;20293;-78
2023/02/05 02:06:14;;;;;;;3.92;3.60;;;;;;;-2.05;98.55;94985.09;5052999;28;20850;-78
2023/02/05 02:08:42;;;;;;;5.65;4.28;;;;;;;-2.10;98.35;94984.41;5052981;28;20218;-77
2023/02/05 02:11:11;;;;;;;5.60;4.20;;;;;;;-2.06;99.25;94989.38;5052737;28;20628;-78
2023/02/05 02:13:40;;;;;;;4.72;4.32;;;;;;;-1.99;100.00;94977.19;5052969;28;20207;-78
2023/02/05 02:16:08;;;;;;;5.05;4.32;;;;;;;-2.00;99.20;94984.06;5018018;28;20207;-79
2023/02/05 02:18:37;;;;;;;4.65;4.25;;;;;;;-1.93;99.83;94984.69;5052754;28;20214;-78
2023/02/05 02:21:35;;;;;;;5.70;4.00;;;;;;;-1.97;98.89;94989.09;5052868;28;20644;-78
2023/02/05 02:24:17;;;;;;;5.90;4.53;;;;;;;-1.84;100.00;94994.63;5052688;28;20499;-79
2023/02/05 02:27:00;;;;;;;3.70;3.40;;;;;;;-1.83;99.24;94991.16;5052387;28;20242;-78
2023/02/05 02:29:36;;;;;;;5.15;3.88;;;;;;;-1.84;98.47;95004.09;5052492;28;20222;-78
2023/02/05 02:32:11;;;;;;;4.55;4.07;;;;;;;-1.89;97.96;95004.25;5052028;28;20198;-78
2023/02/05 02:34:44;;;;;;;4.72;4.32;;;;;;;-1.83;97.69;95003.19;5017476;28;20206;-77
2023/02/05 02:37:17;;;;;;;4.15;3.45;;;;;;;-1.79;97.78;95003.03;5052666;28;20214;-78
2023/02/05 02:39:53;;;;;;;6.97;5.28;;;;;;;-1.77;97.85;95008.09;5052985;28;20202;-79
2023/02/05 02:42:25;;;;;;;6.25;4.15;;;;;;;-1.75;97.64;94996.88;5052447;28;20198;-79
2023/02/05 02:44:56;;;;;;;15.70;5.15;;;;;;;-1.78;96.93;95011.56;5052216;28;20210;-79
2023/02/05 02:47:28;;;;;;;4.38;3.53;;;;;;;-1.80;96.67;95014.19;5052635;28;20199;-78
2023/02/05 02:49:59;;;;;;;8.52;4.50;;;;;;;-1.80;96.01;95015.94;5052545;28;20288;-78
2023/02/05 02:52:29;;;;;;;4.53;4.13;;;;;;;-2.02;96.06;95008.16;5052293;28;20252;-78
2023/02/05 02:55:00;;;;;;;3.85;3.55;;;;;;;-2.07;96.37;95016.00;5052224;28;20232;-78
2023/02/05 02:57:29;;;;;;;4.85;3.47;;;;;;;-2.06;96.58;95017.66;5052012;28;20233;-78
2023/02/05 03:00:01;;;;;;;5.65;3.70;;;;;;;-2.12;96.89;95015.31;5052019;28;20300;-78
2023/02/05 03:02:32;;;;;;;4.78;4.03;;;;;;;-2.03;97.88;95015.00;5051870;28;20253;-78
2023/02/05 03:05:04;;;;;;;4.43;4.03;;;;;;;-1.99;96.34;95018.31;5052583;28;20257;-78
2023/02/05 03:07:34;;;;;;;4.57;3.28;;;;;;;-2.07;95.83;95028.84;5051869;28;20666;-79
2023/02/05 03:10:06;;;;;;;4.95;4.45;;;;;;;-2.07;96.93;95021.13;5051850;28;20218;-78
2023/02/05 03:12:34;;;;;;;4.32;3.92;;;;;;;-1.98;97.59;95025.13;5051774;28;20540;-79
2023/02/05 03:15:02;;;;;;;4.60;3.50;;;;;;;-1.96;97.09;95019.06;5051754;28;20206;-78
2023/02/05 03:17:30;;;;;;;4.60;3.60;;;;;;;-2.07;95.82;95017.72;5051848;28;20260;-77
2023/02/05 03:20:06;;;;;;;10.63;5.10;;;;;;;-2.34;96.27;95022.88;5051574;28;20217;-79
2023/02/05 03:22:33;;;;;;;7.78;3.20;;;;;;;-2.39;96.69;95021.38;5051617;28;20198;-78
2023/02/05 03:25:01;;;;;;;4.47;3.63;;;;;;;-2.39;98.23;95016.22;5051405;28;20203;-77
2023/02/05 03:27:28;;;;;;;3.75;3.45;;;;;;;-2.51;97.61;95020.88;5051982;28;20213;-78
2023/02/05 03:29:55;;;;;;;6.82;5.60;;;;;;;-2.48;98.76;95031.94;5051805;28;20280;-78
2023/02/05 03:32:36;;;;;;;7.15;4.60;;;;;;;-2.39;99.28;95032.47;5032867;28;20197;-78
2023/02/05 03:35:25;;;;;;;4.53;4.10;;;;;;;-2.41;98.65;95041.13;5051604;28;20209;-79
2023/02/05 03:38:05;;;;;;;9.60;5.45;;;;;;;-2.37;99.30;95037.56;5052095;28;20272;-77
2023/02/05 03:40:43;;;;;;;5.35;3.00;;;;;;;-2.47;99.65;95028.50;5051647;28;20206;-79
2023/02/05 03:43:14;;;;;;;8.45;4.93;;;;;;;-2.52;100.00;95034.63;5055629;28;20202;-79
2023/02/05 03:45:51;;;;;;;7.95;4.78;;;;;;;-2.55;100.00;95026.19;5055450;28;20199;-80
2023/02/05 03:48:35;;;;;;;5.88;4.65;;;;;;;-2.52;100.00;95026.91;5055718;28;20705;-79
2023/02/05 03:51:16;;;;;;;5.88;3.70;;;;;;;-2.60;99.57;95030.63;5055734;28;20304;-79
2023/02/05 03:53:50;;;;;;;8.05;5.05;;;;;;;-2.59;100.00;95032.31;5055647;28;20661;-79
2023/02/05 03:56:22;;;;;;;6.60;4.18;;;;;;;-2.55;100.00;95033.88;5055427;28;20287;-78
2023/02/05 03:58:52;;;;;;;5.47;4.10;;;;;;;-2.57;99.99;95039.06;5055475;28;20304;-79
2023/02/05 04:01:20;;;;;;;5.57;4.72;;;;;;;-2.57;99.10;95039.06;5055968;28;20201;-80
2023/02/05 04:03:48;;;;;;;5.93;4.65;;;;;;;-2.55;99.29;95039.84;5056160;28;20207;-79
2023/02/05 04:06:15;;;;;;;3.72;3.42;;;;;;;-2.58;99.81;95049.38;5044529;28;20206;-79
2023/02/05 04:08:43;;;;;;;12.98;4.43;;;;;;;-2.68;98.35;95058.25;5055953;28;20203;-80
2023/02/05 04:11:10;;;;;;;14.85;4.88;;;;;;;-2.77;99.59;95053.41;5056230;28;20329;-79
2023/02/05 04:13:37;;;;;;;4.45;4.05;;;;;;;-2.66;99.97;95062.44;5056577;28;20267;-79
2023/02/05 04:16:04;;;;;;;4.68;3.97;;;;;;;-2.70;100.00;95055.72;5056317;28;20202;-79
2023/02/05 04:18:31;;;;;;;5.65;4.93;;;;;;;-2.76;100.00;95048.22;5056355;28;20257;-80
2023/02/05 04:21:00;;;;;;;7.18;4.97;;;;;;;-2.86;100.00;95057.94;5055760;28;20211;-78
2023/02/05 04:23:27;;;;;;;6.15;4.15;;;;;;;-2.94;100.00;95051.34;5055972;28;20209;-80
2023/02/05 04:25:54;;;;;;;7.65;3.85;;;;;;;-2.98;100.00;95052.31;5055659;28;20235;-79
2023/02/05 04:28:21;;;;;;;4.85;4.38;;;;;;;-2.96;100.00;95063.38;5055742;28;20211;-79
2023/02/05 04:30:48;;;;;;;5.57;4.65;;;;;;;-2.86;100.00;95060.50;5055915;28;20231;-80
2023/02/05 04:33:15;;;;;;;7.93;4.47;;;;;;;-2.88;100.00;95072.56;5003890;28;20203;-79
2023/02/05 04:35:42;;;;;;;8.65;5.20;;;;;;;-2.87;100.00;95068.25;5055588;28;20202;-78
2023/02/05 04:38:10;;;;;;;10.32;4.20;;;;;;;-2.92;100.00;95059.84;5055485;28;20203;-80
2023/02/05 04:40:37;;;;;;;5.30;4.80;;;;;;;-2.94;100.00;95072.72;5055823;28;20221;-84
2023/02/05 04:43:04;;;;;;;7.30;4.80;;;;;;;-2.92;100.00;95064.97;5055914;28;20199;-82
2023/02/05 04:45:32;;;;;;;4.00;3.60;;;;;;;-2.99;100.00;95077.16;5054941;28;20444;-78
2023/02/05 04:47:59;;;;;;;4.55;3.45;;;;;;;-2.92;100.00;95075.22;5055377;28;20449;-78
2023/02/05 04:50:26;;;;;;;3.42;3.10;;;;;;;-2.86;100.00;95080.22;5055491;28;20326;-79
2023/02/05 04:52:53;;;;;;;5.15;4.65;;;;;;;-2.93;100.00;95068.41;5055077;28;20210;-78
2023/02/05 04:55:21;;;;;;;6.55;4.35;;;;;;;-2.95;100.00;95083.03;5055693;28;20206;-79
2023/02/05 04:57:48;;;;;;;6.47;5.15;;;;;;;-3.01;100.00;95080.66;5056213;28;20213;-78
2023/02/05 05:00:15;;;;;;;5.50;4.53;;;;;;;-3.00;100.00;95083.16;5020474;28;20201;-78
2023/02/05 05:02:42;;;;;;;4.60;3.65;;;;;;;-3.15;100.00;95087.03;5055389;28;20207;-79
2023/02/05 05:05:10;;;;;;;5.38;4.60;;;;;;;-3.16;100.00;95082.78;5003164;28;20599;-79
2023/02/05 05:07:37;;;;;;;15.05;6.65;;;;;;;-3.09;100.00;95091.16;5054832;28;20301;-79
2023/02/05 05:10:06;;;;;;;5.53;4.30;;;;;;;-3.16;100.00;95095.63;5054539;28;21074;-79
2023/02/05 05:12:37;;;;;;;8.27;4.45;;;;;;;-3.14;100.00;95100.72;5054681;28;20811;-79
2023/02/05 05:15:06;;;;;;;13.38;5.93;;;;;;;-3.21;100.00;95094.88;5002875;28;20769;-78
2023/02/05 05:17:34;;;;;;;5.90;4.05;;;;;;;-3.23;100.00;95096.66;5055292;28;20210;-78
2023/02/05 05:20:01;;;;;;;9.40;5.43;;;;;;;-3.21;100.00;95100.00;5055398;28;20198;-78
2023/02/05 05:22:28;;;;;;;4.72;3.78;;;;;;;-3.23;100.00;95100.94;5055319;28;20207;-79
2023/02/05 05:24:55;;;;;;;4.72;3.67;;;;;;;-3.20;100.00;95106.00;5055326;28;20206;-78
2023/02/05 05:27:23;;;;;;;6.97;5.05;;;;;;;-3.25;100.00;95115.53;5055407;28;20199;-79
2023/02/05 05:29:51;;;;;;;4.65;4.15;;;;;;;-3.28;100.00;95108.78;5020295;28;20804;-79
2023/02/05 05:32:17;;;;;;;7.28;4.28;;;;;;;-3.36;100.00;95115.00;5055209;28;20261;-79
2023/02/05 05:34:44;;;;;;;5.30;4.85;;;;;;;-3.35;100.00;95116.69;5055428;28;20253;-79
2023/02/05 05:37:11;;;;;;;5.10;3.70;;;;;;;-3.35;100.00;95116.69;5055113;28;20268;-78
2023/02/05 05:45:22;;;;;;;5.00;4.60;;;;;;;-3.42;100.00;95123.72;4974297;28;20245;-79
2023/02/05 05:47:49;;;;;;;6.88;5.30;;;;;;;-3.46;100.00;95134.94;4973806;28;20213;-79
2023/02/05 05:50:16;;;;;;;4.78;4.38;;;;;;;-2.87;100.00;95133.28;4925967;28;20285;-85
2023/02/05 05:52:43;;;;;;;7.68;5.53;;;;;;;-0.11;100.00;95143.53;4975880;28;20551;-84
2023/02/05 05:55:09;;;;;;;7.78;5.25;;;;;;;-0.76;100.00;95159.78;4973792;28;20214;-79
2023/02/05 05:57:36;;;;;;;6.75;6.05;;;;;;;-1.38;100.00;95155.13;4973889;28;20219;-80
2023/02/05 06:00:04;;;;;;;6.55;5.10;;;;;;;-2.10;98.18;95167.75;4974027;28;20263;-80
2023/02/05 06:02:32;;;;;;;7.80;5.80;;;;;;;-2.32;97.85;95169.31;4926394;28;20221;-80
2023/02/05 06:05:01;;;;;;;31.05;9.85;;;;;;;-1.45;100.00;95153.63;4973483;28;20220;-80
2023/02/05 06:07:27;;;;;;;7.50;6.70;;;;;;;2.25;100.00;95145.22;4973422;28;20381;-82
2023/02/05 06:09:54;;;;;;;17.50;7.38;;;;;;;2.24;100.00;95152.16;4973167;28;20682;-81
2023/02/05 06:12:21;;;;;;;7.05;6.28;;;;;;;2.55;100.00;95161.84;4973287;28;20202;-80
2023/02/05 06:14:48;;;;;;;6.18;5.47;;;;;;;2.63;88.01;95171.84;4973152;28;20672;-81
2023/02/05 06:17:14;;;;;;;5.78;4.63;;;;;;;2.20;84.75;95171.34;5045031;28;20780;-81
2023/02/05 06:19:42;;;;;;;5.47;4.78;;;;;;;2.19;84.43;95169.66;5054294;28;20733;-80
2023/02/05 06:22:09;;;;;;;11.63;7.15;;;;;;;2.32;82.84;95183.72;5002625;28;20202;-79
2023/02/05 06:24:36;;;;;;;8.85;5.90;;;;;;;1.28;77.21;95181.63;5002621;28;20204;-77
2023/02/05 06:27:03;;;;;;;9.20;6.50;;;;;;;0.09;81.88;95194.34;5053927;28;20230;-78
2023/02/05 06:29:29;;;;;;;16.15;7.32;;;;;;;-0.52;85.87;95199.28;5053888;28;20198;-76
2023/02/05 06:31:56;;;;;;;10.65;5.65;;;;;;;-1.13;87.58;95192.00;5018221;28;20207;-77
2023/02/05 06:34:23;;;;;;;12.85;5.18;;;;;;;-1.74;91.23;95199.16;5053222;28;20211;-77
2023/02/05 06:36:51;;;;;;;7.65;4.90;;;;;;;-1.98;92.56;95197.41;5053857;28;20198;-77
2023/02/05 06:39:18;;;;;;;10.93;6.10;;;;;;;-2.11;94.16;95209.78;5053303;28;20260;-78
2023/02/05 06:41:45;;;;;;;9.77;6.88;;;;;;;-2.13;95.28;95214.13;5053213;28;20211;-78
2023/02/05 06:44:11;;;;;;;8.13;7.00;;;;;;;-2.35;95.93;95215.66;5052809;28;20594;-79
2023/02/05 06:46:38;;;;;;;12.77;7.63;;;;;;;-2.45;98.36;95216.81;5053394;28;20229;-79
2023/02/05 06:49:05;;;;;;;7.85;7.05;;;;;;;-2.42;99.26;95211.59;5044839;28;20194;-80
2023/02/05 06:51:32;;;;;;;8.48;6.60;;;;;;;-2.53;98.99;95209.34;5053485;28;20222;-80
2023/02/05 06:54:01;;;;;;;7.57;6.43;;;;;;;-2.57;99.77;95221.44;5053685;28;20608;-79
2023/02/05 06:56:28;;;;;;;12.25;7.15;;;;;;;-2.74;100.00;95231.34;5053262;28;20264;-81
2023/02/05 06:58:54;;;;;;;11.05;7.97;;;;;;;-2.67;100.00;95221.72;5018181;28;20583;-81
2023/02/05 07:01:21;;;;;;;7.00;5.70;;;;;;;-2.63;100.00;95219.03;5001984;28;20252;-78
2023/02/05 07:03:51;;;;;;;11.90;7.70;;;;;;;-2.58;100.00;95218.91;5053437;28;20279;-78
2023/02/05 07:06:18;;;;;;;7.55;5.90;;;;;;;-2.52;100.00;95221.31;5053267;28;20286;-80
2023/02/05 07:08:46;;;;;;;9.20;6.30;;;;;;;-2.54;100.00;95229.06;5054246;28;20722;-81
2023/02/05 07:11:14;;;;;;;11.40;5.68;;;;;;;-2.53;100.00;95220.47;5053829;28;20226;-81
2023/02/05 07:13:41;;;;;;;7.90;4.50;;;;;;;-2.59;100.00;95232.66;5001401;28;20210;-81
2023/02/05 07:16:08;;;;;;;11.75;7.13;;;;;;;-2.66;100.00;95241.38;5052387;28;20256;-81
2023/02/05 07:18:35;;;;;;;5.40;4.85;;;;;;;-2.43;100.00;95245.88;5018142;28;20211;-80
2023/02/05 07:21:05;;;;;;;9.75;6.63;;;;;;;-2.40;100.00;95256.91;5017664;28;20264;-79
2023/02/05 07:23:31;;;;;;;7.35;6.65;;;;;;;-2.42;100.00;95250.13;5052969;28;20582;-79
2023/02/05 07:25:58;;;;;;;6.60;5.32;;;;;;;-2.38;100.00;95246.56;5052350;28;20261;-80
2023/02/05 07:28:27;;;;;;;11.02;6.00;;;;;;;-2.30;100.00;95257.50;5033026;28;20261;-78
2023/02/05 07:30:54;;;;;;;5.47;4.60;;;;;;;-2.34;100.00;95248.16;5032761;28;20234;-80
2023/02/05 07:33:21;;;;;;;21.20;11.90;;;;;;;-2.28;100.00;95255.72;5032890;28;20650;-80
2023/02/05 07:35:47;;;;;;;23.60;12.65;;;;;;;-2.33;99.44;95262.69;5033191;28;20257;-80
2023/02/05 07:38:14;;;;;;;8.15;7.10;;;;;;;-2.24;100.00;95268.44;5033113;28;20265;-81
2023/02/05 07:40:41;;;;;;;8.60;7.70;;;;;;;-2.24;99.12;95267.59;5032837;28;20204;-80
2023/02/05 07:43:07;;;;;;;12.68;7.57;;;;;;;-2.25;99.54;95271.06;5032940;28;20214;-79
2023/02/05 07:45:36;;;;;;;12.18;8.38;;;;;;;-2.17;100.00;95270.81;5032464;28;20600;-78
2023/02/05 07:48:02;;;;;;;9.50;8.60;;;;;;;-1.98;100.00;95277.09;5032382;28;20204;-80
2023/02/05 07:50:29;;;;;;;10.10;7.65;;;;;;;-1.85;100.00;95267.28;5032094;28;20639;-79
2023/02/05 07:52:56;;;;;;;9.00;7.80;;;;;;;-1.87;100.00;95273.31;5031822;28;20618;-79
2023/02/05 07:55:23;;;;;;;13.90;7.18;;;;;;;-1.98;99.35;95272.81;5031816;28;20208;-79
2023/02/05 07:57:49;;;;;;;15.55;8.55;;;;;;;-2.00;99.58;95284.03;5031936;28;20203;-79
2023/02/05 08:00:17;;;;;;;16.27;9.30;;;;;;;-2.06;99.50;95290.16;4997086;28;20261;-80
2023/02/05 08:02:45;;;;;;;19.27;11.18;;;;;;;-1.96;100.00;95288.19;5033726;28;20301;-79
2023/02/05 08:05:12;;;;;;;9.90;8.52;;;;;;;-2.01;100.00;95290.06;5033307;28;20206;-80
2023/02/05 08:07:38;;;;;;;25.73;13.73;;;;;;;-1.97;100.00;95291.66;5031796;28;20199;-80
2023/02/05 08:10:06;;;;;;;54.80;28.70;;;;;;;-1.95;100.00;95301.00;5031655;28;20254;-80
2023/02/05 08:12:33;;;;;;;56.35;25.98;;;;;;;-1.79;100.00;95300.53;5032144;28;20199;-80
2023/02/05 08:15:02;;;;;;;31.38;17.88;;;;;;;-1.68;100.00;95301.91;5031907;28;20203;-79
2023/02/05 08:17:29;;;;;;;16.90;10.38;;;;;;;-1.78;100.00;95300.47;5031865;28;20265;-80
2023/02/05 08:19:58;;;;;;;18.95;10.35;;;;;;;-1.72;100.00;95312.31;5031465;28;20203;-79
2023/02/05 08:22:25;;;;;;;10.40;7.88;;;;;;;-1.77;100.00;95301.31;5013005;28;20206;-80
2023/02/05 08:24:52;;;;;;;16.05;10.57;;;;;;;-1.64;100.00;95306.06;5033506;28;20543;-80
2023/02/05 08:27:18;;;;;;;30.88;12.85;;;;;;;-1.63;99.34;95309.47;4996861;28;20207;-80
2023/02/05 08:29:47;;;;;;;34.50;15.02;;;;;;;-1.48;99.58;95308.13;5034157;28;20206;-80
2023/02/05 08:32:14;;;;;;;22.73;12.57;;;;;;;-1.41;99.59;95315.63;5034983;28;20273;-80
2023/02/05 08:34:40;;;;;;;9.60;6.97;;;;;;;-1.37;97.97;95311.22;5035031;28;20203;-80
2023/02/05 08:37:10;;;;;;;21.85;13.20;;;;;;;-1.22;97.97;95315.03;5035489;28;20206;-80
2023/02/05 08:39:37;;;;;;;13.98;9.65;;;;;;;-1.18;97.13;95316.59;5036531;28;20211;-80
2023/02/05 08:42:04;;;;;;;17.92;10.40;;;;;;;-1.14;94.24;95323.38;5034937;28;20204;-80
2023/02/05 08:44:31;;;;;;;53.28;23.63;;;;;;;-1.17;92.63;95321.69;5034686;28;20204;-81
2023/02/05 08:46:58;;;;;;;15.23;10.88;;;;;;;-1.07;90.83;95319.69;5035897;28;20607;-80
2023/02/05 08:49:25;;;;;;;16.90;7.95;;;;;;;-0.91;90.91;95323.44;5000196;28;20756;-87
2023/02/05 08:51:51;;;;;;;15.48;9.63;;;;;;;-0.77;89.15;95328.13;5017248;28;20298;-84
2023/02/05 08:54:20;;;;;;;6.22;4.95;;;;;;;-0.73;86.12;95327.13;5034810;28;20226;-82
2023/02/05 08:56:49;;;;;;;8.60;5.00;;;;;;;-0.75;84.46;95340.06;5035494;28;20204;-81
2023/02/05 08:59:16;;;;;;;6.28;4.65;;;;;;;-0.81;82.78;95332.56;5035715;28;20203;-80
2023/02/05 09:01:44;;;;;;;6.28;4.63;;;;;;;-0.79;83.21;95330.75;5035979;28;20222;-80
2023/02/05 09:04:13;;;;;;;5.95;3.70;;;;;;;-0.65;85.40;95331.13;5036208;28;20208;-82
2023/02/05 09:06:39;;;;;;;6.20;4.85;;;;;;;-0.77;82.27;95339.28;5035747;28;20219;-80
2023/02/05 09:09:06;;;;;;;8.45;5.57;;;;;;;-0.75;82.06;95336.66;5040296;28;20680;-79
2023/02/05 09:11:35;;;;;;;13.30;8.07;;;;;;;-0.73;82.75;95345.16;5052598;28;20291;-80
2023/02/05 09:14:01;;;;;;;7.57;4.68;;;;;;;-0.77;81.66;95341.84;5039029;28;20207;-80
2023/02/05 09:16:28;;;;;;;6.10;5.20;;;;;;;-0.56;82.94;95352.34;5033786;28;20265;-80
2023/02/05 09:18:56;;;;;;;4.65;3.30;;;;;;;-0.46;80.34;95348.53;5035612;28;20208;-88
2023/02/05 09:21:23;;;;;;;5.20;4.35;;;;;;;-0.19;83.25;95354.47;5035260;28;20334;-80
2023/02/05 09:23:50;;;;;;;5.25;4.03;;;;;;;-0.33;78.52;95355.78;5035473;28;20311;-79
2023/02/05 09:26:17;;;;;;;9.82;5.97;;;;;;;-0.25;79.23;95360.69;5047921;28;20729;-80
2023/02/05 09:28:45;;;;;;;18.25;7.05;;;;;;;-0.17;77.99;95366.41;5055332;28;20657;-78
2023/02/05 09:31:14;;;;;;;7.10;3.50;;;;;;;-0.25;78.98;95352.94;5054580;28;20227;-79
2023/02/05 09:33:41;;;;;;;4.60;3.70;;;;;;;-0.25;78.06;95359.84;5003724;28;20210;-83
2023/02/05 09:36:09;;;;;;;8.70;3.83;;;;;;;-0.25;77.58;95368.41;5054505;28;20211;-84
2023/02/05 09:38:36;;;;;;;4.22;3.15;;;;;;;-0.49;75.88;95377.00;5003181;28;20195;-79
2023/02/05 09:41:08;;;;;;;3.38;2.90;;;;;;;-0.71;76.02;95376.88;5055140;28;20201;-79
2023/02/05 09:43:51;;;;;;;2.58;2.38;;;;;;;-0.82;75.77;95379.81;5030008;28;20208;-80
2023/02/05 09:46:27;;;;;;;9.73;3.95;;;;;;;-0.64;77.08;95379.19;5036183;28;20230;-85
2023/02/05 09:48:59;;;;;;;12.30;3.40;;;;;;;-0.64;76.04;95378.34;5040483;28;20203;-80
2023/02/05 09:51:32;;;;;;;11.38;5.18;;;;;;;-0.54;77.49;95371.16;5036527;28;20783;-82
2023/02/05 09:54:06;;;;;;;3.40;3.10;;;;;;;-0.51;76.15;95379.63;5036499;28;20200;-79
2023/02/05 09:56:34;;;;;;;4.65;4.20;;;;;;;-0.45;75.73;95379.41;5037905;28;20224;-80
2023/02/05 09:59:05;;;;;;;3.97;2.42;;;;;;;-0.65;75.30;95374.09;5038303;28;20223;-81
2023/02/05 10:01:44;;;;;;;4.72;2.78;;;;;;;-0.71;75.38;95382.88;5037084;28;20203;-80
2023/02/05 10:04:10;;;;;;;3.67;3.08;;;;;;;-0.68;76.80;95380.19;5035249;28;20208;-78
2023/02/05 10:07:14;;;;;;;3.60;3.15;;;;;;;-0.64;75.30;95379.19;5034073;28;20243;-79
2023/02/05 10:10:00;;;;;;;6.15;3.53;;;;;;;-0.74;76.40;95375.25;5034640;28;20233;-79
2023/02/05 10:12:40;;;;;;;5.25;3.90;;;;;;;-0.67;76.96;95374.13;5035796;28;20250;-79
2023/02/05 10:15:25;;;;;;;8.73;3.42;;;;;;;-0.53;75.32;95381.41;5033685;28;20199;-85
2023/02/05 10:18:04;;;;;;;6.43;3.22;;;;;;;-0.47;74.76;95375.22;5034946;28;20211;-80
2023/02/05 10:20:48;;;;;;;5.93;5.28;;;;;;;-0.36;74.60;95375.66;5047474;28;20206;-80
2023/02/05 10:23:17;;;;;;;3.72;3.28;;;;;;;-0.30;74.48;95380.59;5053879;28;20206;-81
2023/02/05 10:26:07;;;;;;;4.75;3.92;;;;;;;-0.41;74.38;95383.56;5053739;28;20278;-81
2023/02/05 10:29:12;;;;;;;4.10;3.50;;;;;;;-0.41;74.71;95378.41;5053664;28;20203;-81
2023/02/05 10:31:42;;;;;;;4.38;3.30;;;;;;;-0.22;77.84;95388.09;5037421;28;20695;-81
2023/02/05 10:34:27;;;;;;;12.25;6.32;;;;;;;-0.21;74.80;95400.09;5042589;28;20210;-80
2023/02/05 10:36:54;;;;;;;12.45;5.95;;;;;;;-0.31;73.77;95396.97;5046377;28;20210;-80
2023/02/05 10:39:33;;;;;;;11.35;4.13;;;;;;;-0.48;73.00;95395.00;5033783;28;20212;-81
2023/02/05 10:42:06;;;;;;;9.93;5.93;;;;;;;-0.50;74.60;95395.94;5033415;28;20517;-79
2023/02/05 10:44:38;;;;;;;12.38;6.10;;;;;;;-0.60;75.18;95402.28;5034240;28;20214;-80
2023/02/05 10:47:13;;;;;;;10.60;5.30;;;;;;;-0.67;75.06;95392.16;5038053;28;20568;-81
2023/02/05 10:49:47;;;;;;;11.88;4.90;;;;;;;-0.70;74.62;95394.84;5054080;28;20209;-78
2023/02/05 10:52:16;;;;;;;2.60;2.40;;;;;;;-0.84;73.61;95388.50;5052547;28;20295;-79
2023/02/05 10:54:43;;;;;;;4.85;3.10;;;;;;;-0.77;74.74;95393.38;5053225;28;20268;-81
2023/02/05 10:57:15;;;;;;;5.25;4.35;;;;;;;-0.74;76.02;95388.13;5047949;28;20256;-80
2023/02/05 10:59:51;;;;;;;29.17;10.00;;;;;;;-0.67;76.13;95392.16;5053089;28;20623;-79
2023/02/05 11:02:21;;;;;;;4.80;3.20;;;;;;;-0.69;74.22;95393.97;5052509;28;20581;-78
2023/02/05 11:04:52;;;;;;;3.22;2.92;;;;;;;-1.05;74.62;95392.59;5052858;28;20210;-79
2023/02/05 11:07:26;;;;;;;8.43;5.32;;;;;;;-0.99;74.30;95400.09;5052318;28;20198;-79
2023/02/05 11:09:52;;;;;;;6.25;4.35;;;;;;;-1.08;74.62;95402.97;5001294;28;20285;-79
2023/02/05 11:12:27;;;;;;;8.35;3.35;;;;;;;-1.10;73.87;95399.63;5053595;28;20226;-79
2023/02/05 11:14:58;;;;;;;18.42;9.98;;;;;;;-1.06;74.30;95389.16;5052650;28;20641;-80
2023/02/05 11:17:31;;;;;;;13.65;7.50;;;;;;;-0.88;75.52;95392.88;5052624;28;20298;-78
2023/02/05 11:20:01;;;;;;;6.30;5.65;;;;;;;-0.87;73.70;95398.88;5052469;28;20305;-80
2023/02/05 11:22:29;;;;;;;6.75;4.07;;;;;;;-0.84;71.89;95398.78;5052773;28;20586;-80
2023/02/05 11:25:14;;;;;;;15.48;6.70;;;;;;;-0.89;72.04;95401.50;5052525;28;20252;-80
2023/02/05 11:27:41;;;;;;;3.40;3.10;;;;;;;-0.93;72.11;95403.31;5052800;28;20329;-79
2023/02/05 11:30:34;;;;;;;8.00;5.15;;;;;;;-0.92;72.88;95396.44;5052489;28;20264;-79
2023/02/05 11:33:18;;;;;;;6.32;3.50;;;;;;;-0.98;71.95;95400.06;4991012;28;20220;-80
2023/02/05 11:35:52;;;;;;;4.07;3.58;;;;;;;-1.06;71.11;95403.78;4991228;28;20255;-80
2023/02/05 11:38:29;;;;;;;2.97;2.75;;;;;;;-1.06;71.87;95402.03;4952537;28;20579;-80
2023/02/05 11:40:57;;;;;;;7.20;4.72;;;;;;;-0.94;72.13;95403.38;4989725;28;20291;-78
2023/02/05 11:43:28;;;;;;;6.85;4.93;;;;;;;-0.77;75.11;95397.69;4987320;28;20212;-80
2023/02/05 11:45:58;;;;;;;9.85;5.00;;;;;;;-0.69;72.49;95399.13;4988028;28;20209;-79